createdAt,value
2018-08-17T00:01:15.886Z,17.20
2018-08-17T00:03:44.968Z,17.20
2018-08-17T00:06:13.623Z,17.10
2018-08-17T00:08:42.304Z,17.20
2018-08-17T00:11:10.830Z,17.30
2018-08-17T00:13:39.458Z,17.10
2018-08-17T00:16:08.079Z,17.00
2018-08-17T00:18:37.433Z,16.90
2018-08-17T00:21:06.025Z,16.60
2018-08-17T00:23:35.110Z,16.70
2018-08-17T00:26:03.784Z,16.60
2018-08-17T00:28:32.389Z,16.30
2018-08-17T00:31:01.057Z,16.40
2018-08-17T00:33:29.636Z,16.40
2018-08-17T00:35:58.393Z,16.30
2018-08-17T00:38:26.972Z,16.30
2018-08-17T00:40:55.590Z,16.30
2018-08-17T00:43:24.276Z,16.60
2018-08-17T00:45:52.878Z,16.80
2018-08-17T00:48:21.800Z,16.80
2018-08-17T00:50:50.388Z,17.00
2018-08-17T00:53:18.961Z,16.80
2018-08-17T00:55:47.599Z,16.70
2018-08-17T00:58:16.930Z,16.50
2018-08-17T01:00:45.484Z,16.40
2018-08-17T01:03:13.990Z,16.70
2018-08-17T01:05:42.564Z,16.50
2018-08-17T01:08:11.122Z,16.50
2018-08-17T01:10:39.838Z,16.50
2018-08-17T01:13:13.070Z,16.60
2018-08-17T01:15:42.023Z,16.50
2018-08-17T01:18:11.951Z,16.60
2018-08-17T01:20:40.619Z,16.50
2018-08-17T01:23:09.586Z,16.30
2018-08-17T01:25:38.571Z,16.20
2018-08-17T01:28:08.399Z,16.10
2018-08-17T01:30:37.325Z,16.00
2018-08-17T01:33:06.466Z,16.00
2018-08-17T01:35:35.176Z,16.30
2018-08-17T01:38:03.789Z,16.60
2018-08-17T01:40:32.615Z,16.50
2018-08-17T01:43:01.185Z,16.40
2018-08-17T01:45:30.297Z,16.20
2018-08-17T01:47:59.182Z,16.40
2018-08-17T01:50:27.743Z,16.40
2018-08-17T01:52:56.741Z,16.20
2018-08-17T01:55:25.987Z,16.10
2018-08-17T01:57:54.536Z,16.00
2018-08-17T02:00:23.111Z,16.00
2018-08-17T02:02:51.686Z,15.90
2018-08-17T02:05:20.359Z,15.90
2018-08-17T02:07:49.077Z,15.80
2018-08-17T02:10:17.663Z,15.80
2018-08-17T02:12:46.330Z,15.80
2018-08-17T02:15:15.204Z,15.80
2018-08-17T02:17:43.750Z,15.80
2018-08-17T02:20:12.410Z,15.80
2018-08-17T02:22:40.950Z,15.90
2018-08-17T02:25:09.528Z,15.90
2018-08-17T02:27:38.100Z,15.80
2018-08-17T02:30:07.513Z,15.70
2018-08-17T02:32:36.181Z,15.70
2018-08-17T02:35:06.343Z,15.60
2018-08-17T02:37:34.916Z,15.60
2018-08-17T02:40:03.773Z,15.60
2018-08-17T02:42:32.305Z,15.50
2018-08-17T02:45:00.903Z,15.50
2018-08-17T02:47:29.741Z,15.50
2018-08-17T02:49:58.496Z,15.30
2018-08-17T02:52:27.044Z,15.80
2018-08-17T02:54:55.861Z,15.80
2018-08-17T02:57:24.913Z,15.70
2018-08-17T02:59:53.487Z,15.70
2018-08-17T03:02:22.096Z,15.60
2018-08-17T03:04:50.903Z,15.50
2018-08-17T03:07:19.463Z,15.50
2018-08-17T03:09:48.240Z,15.10
2018-08-17T03:12:16.894Z,15.20
2018-08-17T03:14:45.619Z,15.10
2018-08-17T03:17:14.278Z,15.20
2018-08-17T03:19:42.971Z,15.10
2018-08-17T03:22:11.851Z,15.30
2018-08-17T03:24:40.790Z,15.20
2018-08-17T03:27:09.385Z,15.20
2018-08-17T03:29:38.335Z,15.20
2018-08-17T03:32:07.720Z,15.10
2018-08-17T03:34:37.396Z,15.00
2018-08-17T03:37:06.499Z,14.90
2018-08-17T03:39:34.977Z,15.00
2018-08-17T03:42:03.619Z,15.00
2018-08-17T03:44:32.190Z,15.00
2018-08-17T03:47:00.763Z,15.20
2018-08-17T03:49:29.280Z,14.90
2018-08-17T03:51:57.958Z,15.10
2018-08-17T03:54:26.544Z,15.00
2018-08-17T03:56:55.122Z,15.10
2018-08-17T03:59:23.648Z,15.10
2018-08-17T04:01:52.737Z,15.30
2018-08-17T04:04:21.272Z,15.00
2018-08-17T04:06:49.786Z,15.00
2018-08-17T04:09:18.390Z,14.80
2018-08-17T04:11:47.028Z,15.00
2018-08-17T04:14:15.592Z,15.30
2018-08-17T04:16:44.150Z,15.20
2018-08-17T04:19:12.775Z,15.00
2018-08-17T04:21:41.373Z,15.10
2018-08-17T04:24:10.035Z,15.00
2018-08-17T04:26:38.681Z,15.00
2018-08-17T04:29:07.273Z,14.70
2018-08-17T04:31:36.600Z,14.90
2018-08-17T04:34:05.488Z,14.90
2018-08-17T04:36:34.044Z,14.80
2018-08-17T04:39:03.014Z,14.80
2018-08-17T04:41:31.578Z,14.80
2018-08-17T04:44:00.260Z,14.70
2018-08-17T04:46:29.172Z,14.80
2018-08-17T04:48:57.768Z,14.70
2018-08-17T04:51:26.514Z,14.90
2018-08-17T04:53:55.412Z,15.10
2018-08-17T04:56:24.222Z,15.20
2018-08-17T04:58:52.822Z,15.10
2018-08-17T05:01:21.556Z,15.10
2018-08-17T05:03:50.124Z,15.00
2018-08-17T05:06:18.860Z,14.90
2018-08-17T05:08:47.643Z,14.80
2018-08-17T05:11:16.457Z,14.80
2018-08-17T05:13:45.006Z,14.70
2018-08-17T05:16:13.959Z,14.60
2018-08-17T05:18:42.677Z,14.70
2018-08-17T05:21:11.279Z,14.70
2018-08-17T05:23:40.751Z,14.60
2018-08-17T05:26:09.548Z,14.60
2018-08-17T05:28:38.419Z,14.60
2018-08-17T05:31:07.385Z,14.60
2018-08-17T05:33:35.963Z,14.50
2018-08-17T05:36:04.656Z,14.80
2018-08-17T05:38:33.203Z,14.50
2018-08-17T05:41:01.793Z,14.50
2018-08-17T05:43:31.855Z,14.40
2018-08-17T05:46:00.515Z,14.40
2018-08-17T05:48:29.125Z,14.40
2018-08-17T05:50:57.797Z,14.40
2018-08-17T05:53:26.720Z,14.30
2018-08-17T05:55:55.254Z,14.40
2018-08-17T05:58:24.174Z,14.40
2018-08-17T06:00:52.831Z,14.50
2018-08-17T06:03:21.459Z,14.50
2018-08-17T06:05:50.065Z,14.50
2018-08-17T06:08:19.691Z,14.60
2018-08-17T06:10:48.346Z,14.60
2018-08-17T06:13:17.031Z,14.70
2018-08-17T06:15:45.867Z,14.70
2018-08-17T06:18:14.899Z,14.60
2018-08-17T06:20:43.651Z,14.70
2018-08-17T06:23:12.447Z,14.70
2018-08-17T06:25:41.402Z,14.80
2018-08-17T06:28:10.160Z,14.70
2018-08-17T06:30:38.799Z,15.10
2018-08-17T06:33:07.432Z,15.00
2018-08-17T06:35:36.118Z,15.00
2018-08-17T06:38:04.882Z,15.10
2018-08-17T06:40:33.950Z,15.10
2018-08-17T06:43:02.558Z,15.30
2018-08-17T06:45:31.412Z,15.40
2018-08-17T06:48:00.186Z,15.40
2018-08-17T06:50:29.159Z,15.40
2018-08-17T06:52:57.763Z,15.40
2018-08-17T06:55:27.325Z,15.50
2018-08-17T06:57:56.192Z,15.50
2018-08-17T07:00:25.297Z,15.80
2018-08-17T07:02:53.921Z,15.80
2018-08-17T07:05:22.742Z,15.80
2018-08-17T07:07:51.640Z,15.80
2018-08-17T07:10:21.960Z,15.90
2018-08-17T07:12:50.662Z,16.20
2018-08-17T07:15:19.291Z,16.20
2018-08-17T07:17:48.055Z,16.40
2018-08-17T07:20:18.618Z,16.40
2018-08-17T07:22:47.226Z,16.50
2018-08-17T07:25:16.130Z,16.50
2018-08-17T07:27:44.892Z,16.50
2018-08-17T07:30:13.886Z,16.70
2018-08-17T07:32:42.436Z,16.90
2018-08-17T07:35:12.160Z,16.80
2018-08-17T07:37:40.826Z,17.00
2018-08-17T07:40:09.895Z,17.00
2018-08-17T07:42:38.858Z,17.20
2018-08-17T07:45:08.786Z,17.40
2018-08-17T07:47:37.782Z,17.40
2018-08-17T07:50:06.393Z,17.50
2018-08-17T07:52:35.451Z,17.30
2018-08-17T07:55:04.249Z,17.30
2018-08-17T07:57:32.825Z,17.30
2018-08-17T08:00:01.979Z,17.20
2018-08-17T08:02:30.633Z,17.10
2018-08-17T08:04:59.283Z,16.90
2018-08-17T08:07:28.181Z,16.80
2018-08-17T08:09:56.970Z,16.70
2018-08-17T08:12:25.600Z,16.70
2018-08-17T08:14:54.357Z,16.90
2018-08-17T08:17:23.722Z,17.00
2018-08-17T08:20:03.583Z,16.90
2018-08-17T08:22:32.131Z,16.90
2018-08-17T08:25:00.662Z,16.90
2018-08-17T08:27:30.245Z,17.00
2018-08-17T08:29:59.431Z,17.00
2018-08-17T08:32:28.282Z,17.10
2018-08-17T08:34:56.832Z,17.10
2018-08-17T08:37:26.285Z,17.00
2018-08-17T08:39:54.980Z,17.10
2018-08-17T08:42:23.576Z,17.00
2018-08-17T08:44:52.398Z,17.00
2018-08-17T08:47:23.407Z,17.00
2018-08-17T08:49:53.183Z,17.10
2018-08-17T08:52:22.333Z,17.10
2018-08-17T08:54:52.403Z,17.10
2018-08-17T08:57:21.185Z,17.20
2018-08-17T08:59:52.033Z,17.20
2018-08-17T09:02:21.280Z,17.10
2018-08-17T09:04:50.070Z,17.10
2018-08-17T09:07:18.931Z,17.20
2018-08-17T09:09:47.707Z,17.20
2018-08-17T09:12:16.600Z,17.10
2018-08-17T09:14:45.160Z,17.00
2018-08-17T09:17:14.303Z,17.20
2018-08-17T09:19:43.168Z,17.20
2018-08-17T09:22:11.803Z,17.40
2018-08-17T09:24:40.610Z,17.30
2018-08-17T09:27:09.641Z,17.20
2018-08-17T09:29:38.603Z,17.20
2018-08-17T09:32:07.253Z,17.40
2018-08-17T09:34:36.113Z,17.20
2018-08-17T09:37:04.682Z,17.10
2018-08-17T09:39:33.465Z,17.30
2018-08-17T09:42:02.324Z,17.30
2018-08-17T09:44:30.936Z,17.30
2018-08-17T09:46:59.841Z,17.30
2018-08-17T09:49:28.822Z,17.30
2018-08-17T09:51:58.763Z,17.30
2018-08-17T09:54:27.623Z,17.40
2018-08-17T09:56:57.372Z,17.50
2018-08-17T09:59:26.297Z,17.70
2018-08-17T10:02:00.512Z,17.90
2018-08-17T10:04:35.137Z,18.00
2018-08-17T10:07:09.092Z,18.20
2018-08-17T10:09:43.125Z,18.00
2018-08-17T10:12:12.662Z,18.20
2018-08-17T10:14:41.521Z,18.30
2018-08-17T10:17:10.257Z,18.00
2018-08-17T10:19:39.409Z,18.00
2018-08-17T10:22:08.544Z,17.90
2018-08-17T10:24:37.943Z,17.90
2018-08-17T10:27:06.883Z,18.20
2018-08-17T10:29:36.183Z,18.20
2018-08-17T10:32:05.718Z,18.10
2018-08-17T10:34:34.439Z,18.00
2018-08-17T10:37:03.578Z,18.00
2018-08-17T10:39:32.463Z,18.20
2018-08-17T10:42:01.873Z,18.40
2018-08-17T10:44:30.565Z,18.50
2018-08-17T10:46:59.673Z,18.50
2018-08-17T10:49:28.905Z,18.40
2018-08-17T10:51:58.464Z,18.30
2018-08-17T10:54:27.153Z,18.60
2018-08-17T10:56:56.760Z,18.60
2018-08-17T10:59:25.485Z,18.50
2018-08-17T11:01:54.468Z,18.50
2018-08-17T11:04:23.052Z,18.40
2018-08-17T11:06:51.853Z,18.60
2018-08-17T11:09:21.138Z,18.50
2018-08-17T11:11:50.100Z,18.50
2018-08-17T11:14:19.092Z,18.50
2018-08-17T11:16:48.120Z,18.60
2018-08-17T11:19:17.079Z,18.60
2018-08-17T11:21:46.361Z,18.50
2018-08-17T11:24:15.104Z,18.60
2018-08-17T11:26:43.834Z,18.30
2018-08-17T11:29:13.246Z,18.30
2018-08-17T11:31:41.936Z,18.30
2018-08-17T11:34:10.695Z,18.20
2018-08-17T11:36:39.373Z,18.20
2018-08-17T11:39:08.834Z,18.20
2018-08-17T11:41:37.545Z,18.20
2018-08-17T11:44:11.265Z,18.40
2018-08-17T11:46:40.360Z,18.60
2018-08-17T11:49:08.977Z,18.80
2018-08-17T11:51:40.167Z,18.70
2018-08-17T11:54:10.955Z,18.70
2018-08-17T11:56:39.911Z,18.60
2018-08-17T11:59:08.848Z,18.80
2018-08-17T12:01:37.829Z,18.80
2018-08-17T12:04:06.478Z,18.50
2018-08-17T12:06:35.111Z,18.30
2018-08-17T12:09:04.085Z,18.20
2018-08-17T12:11:33.150Z,18.40
2018-08-17T12:14:02.481Z,18.80
2018-08-17T12:16:31.080Z,18.60
2018-08-17T12:18:59.864Z,18.80
2018-08-17T12:21:28.701Z,18.80
2018-08-17T12:23:57.343Z,19.00
2018-08-17T12:26:25.975Z,18.90
2018-08-17T12:28:55.025Z,18.90
2018-08-17T12:31:23.632Z,18.90
2018-08-17T12:33:52.266Z,19.10
2018-08-17T12:36:22.249Z,19.00
2018-08-17T12:38:51.798Z,19.30
2018-08-17T12:41:20.743Z,19.50
2018-08-17T12:43:49.426Z,19.40
2018-08-17T12:46:18.892Z,19.50
2018-08-17T12:48:47.863Z,19.60
2018-08-17T12:51:16.548Z,19.30
2018-08-17T12:53:45.388Z,19.40
2018-08-17T12:56:14.093Z,19.40
2018-08-17T12:58:42.856Z,19.50
2018-08-17T13:01:11.752Z,19.60
2018-08-17T13:03:40.334Z,19.70
2018-08-17T13:06:09.125Z,19.50
2018-08-17T13:08:38.700Z,19.30
2018-08-17T13:11:07.575Z,19.30
2018-08-17T13:13:36.226Z,19.40
2018-08-17T13:16:06.450Z,19.10
2018-08-17T13:18:37.127Z,19.20
2018-08-17T13:21:06.596Z,19.40
2018-08-17T13:23:35.446Z,19.50
2018-08-17T13:26:04.321Z,19.70
2018-08-17T13:28:33.239Z,19.50
2018-08-17T13:31:02.138Z,19.20
2018-08-17T13:33:31.552Z,19.20
2018-08-17T13:36:00.888Z,19.20
2018-08-17T13:38:29.895Z,19.80
2018-08-17T13:40:58.707Z,19.60
2018-08-17T13:43:27.456Z,19.70
2018-08-17T13:45:56.680Z,19.70
2018-08-17T13:48:25.258Z,19.60
2018-08-17T13:50:54.648Z,19.70
2018-08-17T13:53:23.228Z,19.60
2018-08-17T13:55:51.917Z,19.50
2018-08-17T13:58:20.648Z,19.60
2018-08-17T14:00:49.501Z,19.80
2018-08-17T14:03:18.318Z,19.80
2018-08-17T14:05:47.101Z,19.60
2018-08-17T14:08:16.129Z,19.70
2018-08-17T14:10:44.857Z,19.60
2018-08-17T14:13:13.552Z,19.70
2018-08-17T14:15:42.651Z,19.60
2018-08-17T14:18:11.919Z,19.70
2018-08-17T14:20:40.595Z,19.90
2018-08-17T14:23:09.560Z,19.90
2018-08-17T14:25:38.707Z,20.00
2018-08-17T14:28:07.472Z,19.90
2018-08-17T14:30:36.104Z,20.00
2018-08-17T14:33:04.838Z,20.00
2018-08-17T14:35:33.491Z,20.00
2018-08-17T14:38:02.624Z,20.20
2018-08-17T14:40:31.484Z,20.10
2018-08-17T14:43:00.279Z,20.30
2018-08-17T14:45:30.120Z,20.30
2018-08-17T14:47:58.922Z,20.30
2018-08-17T14:50:27.577Z,20.20
2018-08-17T14:52:56.397Z,20.20
2018-08-17T14:55:25.801Z,20.40
2018-08-17T14:57:54.460Z,20.30
2018-08-17T15:00:23.053Z,20.40
2018-08-17T15:02:52.263Z,20.40
2018-08-17T15:05:21.816Z,20.30
2018-08-17T15:07:50.647Z,20.50
2018-08-17T15:10:19.959Z,20.40
2018-08-17T15:12:48.695Z,20.30
2018-08-17T15:15:17.270Z,20.40
2018-08-17T15:17:45.933Z,20.20
2018-08-17T15:20:14.723Z,20.20
2018-08-17T15:22:43.630Z,20.20
2018-08-17T15:25:12.375Z,20.40
2018-08-17T15:27:41.358Z,20.30
2018-08-17T15:30:11.863Z,20.20
2018-08-17T15:32:41.663Z,20.40
2018-08-17T15:35:11.091Z,20.40
2018-08-17T15:37:40.080Z,20.30
2018-08-17T15:40:10.655Z,20.40
2018-08-17T15:42:39.626Z,20.50
2018-08-17T15:45:08.907Z,20.40
2018-08-17T15:47:37.993Z,20.30
2018-08-17T15:50:12.333Z,20.50
2018-08-17T15:52:40.995Z,20.50
2018-08-17T15:55:09.659Z,20.40
2018-08-17T15:57:38.433Z,20.50
2018-08-17T16:00:08.918Z,20.60
2018-08-17T16:02:38.377Z,20.80
2018-08-17T16:05:07.593Z,20.70
2018-08-17T16:07:36.197Z,20.60
2018-08-17T16:10:05.544Z,20.40
2018-08-17T16:12:34.995Z,20.40
2018-08-17T16:15:03.653Z,20.20
2018-08-17T16:17:32.601Z,20.10
2018-08-17T16:20:01.167Z,20.10
2018-08-17T16:22:30.181Z,20.10
2018-08-17T16:24:59.197Z,20.10
2018-08-17T16:27:28.180Z,20.30
2018-08-17T16:29:57.071Z,20.50
2018-08-17T16:32:26.712Z,20.30
2018-08-17T16:34:55.511Z,20.30
2018-08-17T16:37:24.512Z,20.30
2018-08-17T16:39:53.036Z,20.20
2018-08-17T16:42:27.082Z,20.20
2018-08-17T16:44:56.460Z,20.10
2018-08-17T16:47:25.072Z,20.10
2018-08-17T16:49:53.690Z,20.00
2018-08-17T16:52:22.610Z,19.90
2018-08-17T16:54:51.256Z,19.90
2018-08-17T16:57:20.224Z,19.90
2018-08-17T16:59:49.420Z,19.90
2018-08-17T17:02:18.962Z,20.00
2018-08-17T17:04:47.589Z,19.90
2018-08-17T17:07:16.369Z,19.80
2018-08-17T17:09:45.068Z,20.00
2018-08-17T17:12:18.591Z,19.90
2018-08-17T17:14:47.543Z,19.80
2018-08-17T17:17:16.734Z,19.70
2018-08-17T17:19:45.485Z,19.60
2018-08-17T17:22:14.043Z,19.60
2018-08-17T17:24:42.829Z,19.50
2018-08-17T17:27:11.662Z,19.50
2018-08-17T17:29:40.240Z,19.50
2018-08-17T17:32:10.158Z,19.50
2018-08-17T17:34:38.785Z,19.60
2018-08-17T17:37:07.999Z,19.60
2018-08-17T17:39:36.665Z,19.50
2018-08-17T17:42:05.700Z,19.50
2018-08-17T17:44:34.518Z,19.40
2018-08-17T17:47:03.185Z,19.40
2018-08-17T17:49:31.809Z,19.50
2018-08-17T17:52:00.397Z,19.50
2018-08-17T17:54:29.318Z,19.40
2018-08-17T17:57:14.464Z,19.30
2018-08-17T17:59:48.454Z,19.10
2018-08-17T18:02:17.570Z,19.00
2018-08-17T18:04:46.256Z,18.90
2018-08-17T18:07:14.800Z,18.90
2018-08-17T18:09:43.661Z,19.00
2018-08-17T18:12:12.397Z,19.00
2018-08-17T18:14:41.374Z,18.90
2018-08-17T18:17:10.564Z,18.80
2018-08-17T18:19:39.253Z,18.80
2018-08-17T18:22:14.251Z,18.70
2018-08-17T18:24:42.790Z,18.70
2018-08-17T18:27:11.860Z,18.60
2018-08-17T18:29:40.459Z,18.60
2018-08-17T18:32:09.567Z,18.50
2018-08-17T18:34:38.913Z,18.40
2018-08-17T18:37:07.548Z,18.50
2018-08-17T18:39:36.443Z,18.40
2018-08-17T18:42:05.112Z,18.30
2018-08-17T18:44:33.770Z,18.40
2018-08-17T18:47:02.368Z,18.30
2018-08-17T18:49:31.775Z,18.30
2018-08-17T18:52:00.419Z,18.20
2018-08-17T18:54:29.083Z,18.00
2018-08-17T18:56:57.858Z,18.00
2018-08-17T18:59:26.663Z,18.00
2018-08-17T19:01:55.501Z,18.00
2018-08-17T19:04:24.913Z,17.90
2018-08-17T19:06:53.910Z,18.20
2018-08-17T19:09:22.457Z,18.40
2018-08-17T19:11:51.054Z,18.20
2018-08-17T19:14:19.975Z,17.90
2018-08-17T19:16:48.537Z,17.70
2018-08-17T19:19:17.280Z,17.50
2018-08-17T19:21:45.850Z,17.30
2018-08-17T19:24:14.529Z,17.20
2018-08-17T19:26:43.302Z,17.20
2018-08-17T19:29:11.843Z,17.10
2018-08-17T19:31:47.349Z,17.00
2018-08-17T19:34:16.546Z,17.00
2018-08-17T19:36:45.166Z,16.90
2018-08-17T19:39:20.716Z,16.90
2018-08-17T19:41:49.847Z,16.80
2018-08-17T19:44:18.475Z,16.80
2018-08-17T19:46:47.709Z,16.90
2018-08-17T19:49:16.288Z,17.10
2018-08-17T19:51:44.831Z,17.10
2018-08-17T19:54:14.117Z,17.10
2018-08-17T19:56:42.816Z,16.90
2018-08-17T19:59:11.356Z,16.80
2018-08-17T20:01:40.023Z,16.70
2018-08-17T20:04:08.798Z,16.60
2018-08-17T20:06:37.334Z,16.50
2018-08-17T20:09:08.113Z,16.50
2018-08-17T20:11:37.370Z,16.80
2018-08-17T20:14:06.351Z,16.70
2018-08-17T20:16:35.159Z,16.80
2018-08-17T20:19:03.804Z,16.80
2018-08-17T20:21:32.353Z,16.70
2018-08-17T20:24:01.084Z,16.80
2018-08-17T20:26:29.953Z,16.80
2018-08-17T20:28:58.313Z,16.60
2018-08-17T20:31:27.037Z,16.70
2018-08-17T20:33:55.613Z,16.80
2018-08-17T20:36:24.366Z,16.70
2018-08-17T20:38:53.150Z,16.60
2018-08-17T20:41:22.967Z,16.60
2018-08-17T20:43:51.555Z,16.50
2018-08-17T20:46:21.151Z,16.50
2018-08-17T20:48:51.141Z,16.40
2018-08-17T20:51:26.448Z,16.30
2018-08-17T20:53:57.276Z,16.20
2018-08-17T20:56:26.305Z,16.50
2018-08-17T20:58:55.064Z,16.60
2018-08-17T21:01:24.133Z,16.50
2018-08-17T21:03:53.286Z,16.40
2018-08-17T21:06:22.234Z,16.50
2018-08-17T21:08:50.848Z,16.40
2018-08-17T21:11:19.495Z,16.50
2018-08-17T21:13:48.358Z,16.50
2018-08-17T21:16:16.928Z,16.40
2018-08-17T21:18:45.797Z,16.50
2018-08-17T21:21:14.348Z,16.30
2018-08-17T21:23:42.909Z,16.30
2018-08-17T21:26:11.890Z,16.10
2018-08-17T21:28:40.773Z,16.10
2018-08-17T21:31:09.388Z,16.20
2018-08-17T21:33:38.705Z,16.20
2018-08-17T21:36:07.360Z,16.30
2018-08-17T21:38:35.885Z,16.20
2018-08-17T21:41:04.497Z,16.00
2018-08-17T21:43:33.170Z,15.90
2018-08-17T21:46:04.291Z,15.90
2018-08-17T21:48:33.684Z,16.10
2018-08-17T21:51:02.788Z,16.10
2018-08-17T21:53:31.417Z,16.10
2018-08-17T21:56:00.245Z,16.10
2018-08-17T21:58:29.129Z,16.20
2018-08-17T22:00:57.743Z,16.10
2018-08-17T22:03:35.639Z,16.10
2018-08-17T22:06:04.447Z,16.00
2018-08-17T22:08:33.104Z,15.90
2018-08-17T22:11:02.209Z,15.90
2018-08-17T22:13:33.148Z,15.90
2018-08-17T22:16:03.235Z,16.00
2018-08-17T22:18:32.314Z,15.90
2018-08-17T22:21:01.195Z,15.90
2018-08-17T22:23:31.110Z,15.90
2018-08-17T22:25:59.796Z,16.00
2018-08-17T22:28:28.368Z,15.90
2018-08-17T22:30:56.938Z,15.90
2018-08-17T22:33:25.678Z,16.00
2018-08-17T22:35:54.544Z,16.00
2018-08-17T22:38:23.805Z,16.20
2018-08-17T22:40:52.422Z,16.10
2018-08-17T22:43:21.101Z,16.00
2018-08-17T22:45:50.585Z,15.90
2018-08-17T22:48:19.197Z,15.90
2018-08-17T22:50:47.740Z,15.90
2018-08-17T22:53:16.313Z,15.90
2018-08-17T22:55:44.862Z,15.80
2018-08-17T22:58:14.072Z,15.90
2018-08-17T23:00:43.919Z,15.90
2018-08-17T23:03:12.914Z,16.00
2018-08-17T23:05:42.289Z,16.10
2018-08-17T23:08:11.385Z,16.00
2018-08-17T23:10:40.187Z,16.10
2018-08-17T23:13:09.015Z,16.00
2018-08-17T23:15:37.766Z,15.90
2018-08-17T23:18:06.562Z,15.70
2018-08-17T23:20:37.059Z,15.90
2018-08-17T23:23:06.818Z,16.00
2018-08-17T23:25:35.677Z,15.70
2018-08-17T23:28:04.560Z,15.90
2018-08-17T23:30:33.258Z,15.90
2018-08-17T23:33:02.070Z,15.70
2018-08-17T23:35:30.982Z,15.60
2018-08-17T23:37:59.586Z,15.70
2018-08-17T23:40:28.159Z,15.50
2018-08-17T23:42:56.903Z,15.50
2018-08-17T23:45:25.543Z,15.50
2018-08-17T23:47:54.856Z,15.60
2018-08-17T23:50:24.300Z,15.60
2018-08-17T23:52:53.326Z,15.60
2018-08-17T23:55:23.618Z,15.50
2018-08-17T23:57:52.455Z,15.50
